Katerina L — 3FQL2 — position and weather

sailwx.info

Track history (hours):
 
Tides and Currents Weather Stations Pressure Air Temp Water Temp Dewpoint Dewpoint Depression Visibility Wind Speed Wind Dir Waves Ship Positions

Katerina L

Last reported at 2014-Aug-27 15:14 UTC. Time now 2014-Aug-27 21:18 UTC.
Position N 37°56' E 015°38'.

Length 91 m; draft 4.5 m.

Type: Tanker. MMSI: 356460000.

Date/timePositionNaut miles runAvg speedWind from/ knotsBaromVisibWave heightAir tempDewpointWater temp
2014-Aug-27 15:14N 37°56' E 015°38'358 7.2
2014-Aug-25 13:32N 37°52' E 023°12'7 7.5
2014-Aug-25 12:33N 37°51' E 023°21'7 7.2
2014-Aug-25 11:33N 37°52' E 023°30'7 6.7
2014-Aug-25 10:33N 37°56' E 023°36'6 0.4
2014-Aug-24 18:04N 38°02' E 023°32'0 0.0
2014-Aug-24 13:28N 38°02' E 023°32'0 0.0
2014-Aug-24 08:28N 38°02' E 023°32'0 0.1
2014-Aug-24 07:31N 38°02' E 023°32'0 0.0
2014-Aug-24 05:13N 38°02' E 023°32'0 0.0
2014-Aug-24 04:25N 38°02' E 023°32'0 0.0
2014-Aug-24 03:31N 38°02' E 023°32'0 0.0
2014-Aug-24 02:31N 38°02' E 023°32'0 0.0
2014-Aug-24 01:22N 38°02' E 023°32'0 0.0
2014-Aug-23 23:31N 38°02' E 023°32'0 0.0
2014-Aug-23 22:28N 38°02' E 023°32'0 0.0
2014-Aug-23 21:31N 38°02' E 023°32'0 0.1
2014-Aug-23 20:16N 38°02' E 023°32'0 0.0
2014-Aug-23 19:22N 38°02' E 023°32'0 0.0
2014-Aug-23 03:28N 38°02' E 023°32'0 0.0
2014-Aug-23 02:31N 38°02' E 023°32'0 0.0
2014-Aug-23 01:16N 38°02' E 023°32'0 0.1
2014-Aug-23 00:19N 38°02' E 023°32'0 0.0
2014-Aug-22 21:16N 38°02' E 023°32'0 0.0
2014-Aug-22 18:25N 38°02' E 023°32'0 0.0
2014-Aug-22 17:28N 38°02' E 023°32'0 0.0
2014-Aug-22 16:28N 38°02' E 023°32'0 0.0
2014-Aug-22 12:28N 38°02' E 023°32'0 0.0
2014-Aug-22 09:07N 38°02' E 023°32'0 0.0
2014-Aug-22 08:25N 38°02' E 023°32'0 0.0
2014-Aug-22 07:19N 38°02' E 023°32'0 0.0
2014-Aug-22 06:31N 38°02' E 023°32'0 0.1
2014-Aug-22 05:28N 38°02' E 023°32'0 0.0
2014-Aug-22 04:16N 38°02' E 023°32'0 0.0
2014-Aug-22 03:28N 38°02' E 023°32'0 0.0
2014-Aug-22 02:22N 38°02' E 023°32'0 0.0
2014-Aug-22 01:31N 38°02' E 023°32'0 0.0
2014-Aug-21 23:22N 38°02' E 023°32'0 0.0
2014-Aug-21 22:13N 38°02' E 023°32'0 0.0
2014-Aug-21 16:10N 38°02' E 023°32'0 0.0
2014-Aug-21 13:22N 38°02' E 023°32'0 0.0
2014-Aug-21 12:31N 38°02' E 023°32'0 0.0
2014-Aug-21 11:31N 38°02' E 023°32'0 0.0
2014-Aug-21 10:31N 38°02' E 023°32'0 0.0
2014-Aug-21 09:31N 38°02' E 023°32'0 0.0
2014-Aug-21 08:25N 38°02' E 023°32'0 0.0
2014-Aug-21 07:31N 38°02' E 023°32'0 0.1
2014-Aug-21 06:31N 38°02' E 023°32'0 0.0
2014-Aug-21 05:28N 38°02' E 023°32'0 0.0
2014-Aug-21 04:31N 38°02' E 023°32'0 0.0
2014-Aug-21 03:28N 38°02' E 023°32'0 0.0
2014-Aug-21 02:31N 38°02' E 023°32'0 0.0
2014-Aug-21 01:31N 38°02' E 023°32'0 0.0
2014-Aug-21 00:31N 38°02' E 023°32'0 0.0
2014-Aug-20 23:31N 38°02' E 023°32'0 0.0
2014-Aug-20 22:31N 38°02' E 023°32'0 0.0
2014-Aug-20 20:25N 38°02' E 023°32'0 0.0
2014-Aug-20 18:22N 38°02' E 023°32'0 0.0
2014-Aug-20 17:28N 38°02' E 023°32'0 0.0
2014-Aug-20 16:31N 38°02' E 023°32'0 0.0
2014-Aug-20 15:31N 38°02' E 023°32'0 0.0
2014-Aug-20 14:07N 38°02' E 023°32'0 0.0
2014-Aug-20 13:22N 38°02' E 023°32'0 0.0
2014-Aug-20 12:22N 38°02' E 023°32'0 0.0
2014-Aug-19 07:31N 38°02' E 023°32'0 0.0
2014-Aug-19 06:28N 38°02' E 023°32'0 0.0
2014-Aug-19 04:16N 38°02' E 023°32'0 0.0
2014-Aug-19 02:04N 38°02' E 023°32'0 0.0
2014-Aug-18 23:10N 38°02' E 023°32'0 0.0
2014-Aug-18 22:27N 38°02' E 023°32'0 0.0
2014-Aug-18 20:24N 38°02' E 023°32'0 0.0
2014-Aug-18 19:15N 38°02' E 023°32'0 0.0
2014-Aug-18 18:30N 38°02' E 023°32'0 0.0
2014-Aug-18 17:18N 38°02' E 023°32'0 0.0
2014-Aug-18 15:30N 38°02' E 023°32'0 0.0
2014-Aug-18 14:15N 38°02' E 023°32'0 0.0
2014-Aug-18 13:24N 38°02' E 023°32'0 0.0
2014-Aug-18 12:30N 38°02' E 023°32'0 0.0
2014-Aug-18 11:21N 38°02' E 023°32'0 0.0
2014-Aug-18 10:24N 38°02' E 023°32'0 0.0
2014-Aug-18 09:30N 38°02' E 023°32'0 0.0
2014-Aug-18 08:33N 38°02' E 023°32'0 0.0
2014-Aug-18 07:27N 38°02' E 023°32'0 0.0
2014-Aug-18 06:27N 38°02' E 023°32'0 0.0
2014-Aug-17 16:33N 38°02' E 023°32'0 0.0
2014-Aug-17 15:24N 38°02' E 023°32'  
Track history (hours):
 
Tides and Currents Weather Stations Pressure Air Temp Water Temp Dewpoint Dewpoint Depression Visibility Wind Speed Wind Dir Waves Ship Positions

Katerina L

Last reported at 2014-Aug-27 15:14 UTC. Time now 2014-Aug-27 21:18 UTC.
Position N 37°56' E 015°38'.

Length 91 m; draft 4.5 m.

Type: Tanker. MMSI: 356460000.

Date/timePositionNaut miles runAvg speedWind from/ knotsBaromVisibWave heightAir tempDewpointWater temp
2014-Aug-27 15:14N 37°56' E 015°38'358 7.2
2014-Aug-25 13:32N 37°52' E 023°12'7 7.5
2014-Aug-25 12:33N 37°51' E 023°21'7 7.2
2014-Aug-25 11:33N 37°52' E 023°30'7 6.7
2014-Aug-25 10:33N 37°56' E 023°36'6 0.4
2014-Aug-24 18:04N 38°02' E 023°32'0 0.0
2014-Aug-24 13:28N 38°02' E 023°32'0 0.0
2014-Aug-24 08:28N 38°02' E 023°32'0 0.1
2014-Aug-24 07:31N 38°02' E 023°32'0 0.0
2014-Aug-24 05:13N 38°02' E 023°32'0 0.0
2014-Aug-24 04:25N 38°02' E 023°32'0 0.0
2014-Aug-24 03:31N 38°02' E 023°32'0 0.0
2014-Aug-24 02:31N 38°02' E 023°32'0 0.0
2014-Aug-24 01:22N 38°02' E 023°32'0 0.0
2014-Aug-23 23:31N 38°02' E 023°32'0 0.0
2014-Aug-23 22:28N 38°02' E 023°32'0 0.0
2014-Aug-23 21:31N 38°02' E 023°32'0 0.1
2014-Aug-23 20:16N 38°02' E 023°32'0 0.0
2014-Aug-23 19:22N 38°02' E 023°32'0 0.0
2014-Aug-23 03:28N 38°02' E 023°32'0 0.0
2014-Aug-23 02:31N 38°02' E 023°32'0 0.0
2014-Aug-23 01:16N 38°02' E 023°32'0 0.1
2014-Aug-23 00:19N 38°02' E 023°32'0 0.0
2014-Aug-22 21:16N 38°02' E 023°32'0 0.0
2014-Aug-22 18:25N 38°02' E 023°32'0 0.0
2014-Aug-22 17:28N 38°02' E 023°32'0 0.0
2014-Aug-22 16:28N 38°02' E 023°32'0 0.0
2014-Aug-22 12:28N 38°02' E 023°32'0 0.0
2014-Aug-22 09:07N 38°02' E 023°32'0 0.0
2014-Aug-22 08:25N 38°02' E 023°32'0 0.0
2014-Aug-22 07:19N 38°02' E 023°32'0 0.0
2014-Aug-22 06:31N 38°02' E 023°32'0 0.1
2014-Aug-22 05:28N 38°02' E 023°32'0 0.0
2014-Aug-22 04:16N 38°02' E 023°32'0 0.0
2014-Aug-22 03:28N 38°02' E 023°32'0 0.0
2014-Aug-22 02:22N 38°02' E 023°32'0 0.0
2014-Aug-22 01:31N 38°02' E 023°32'0 0.0
2014-Aug-21 23:22N 38°02' E 023°32'0 0.0
2014-Aug-21 22:13N 38°02' E 023°32'0 0.0
2014-Aug-21 16:10N 38°02' E 023°32'0 0.0
2014-Aug-21 13:22N 38°02' E 023°32'0 0.0
2014-Aug-21 12:31N 38°02' E 023°32'0 0.0
2014-Aug-21 11:31N 38°02' E 023°32'0 0.0
2014-Aug-21 10:31N 38°02' E 023°32'0 0.0
2014-Aug-21 09:31N 38°02' E 023°32'0 0.0
2014-Aug-21 08:25N 38°02' E 023°32'0 0.0
2014-Aug-21 07:31N 38°02' E 023°32'0 0.1
2014-Aug-21 06:31N 38°02' E 023°32'0 0.0
2014-Aug-21 05:28N 38°02' E 023°32'0 0.0
2014-Aug-21 04:31N 38°02' E 023°32'0 0.0
2014-Aug-21 03:28N 38°02' E 023°32'0 0.0
2014-Aug-21 02:31N 38°02' E 023°32'0 0.0
2014-Aug-21 01:31N 38°02' E 023°32'0 0.0
2014-Aug-21 00:31N 38°02' E 023°32'0 0.0
2014-Aug-20 23:31N 38°02' E 023°32'0 0.0
2014-Aug-20 22:31N 38°02' E 023°32'0 0.0
2014-Aug-20 20:25N 38°02' E 023°32'0 0.0
2014-Aug-20 18:22N 38°02' E 023°32'0 0.0
2014-Aug-20 17:28N 38°02' E 023°32'0 0.0
2014-Aug-20 16:31N 38°02' E 023°32'0 0.0
2014-Aug-20 15:31N 38°02' E 023°32'0 0.0
2014-Aug-20 14:07N 38°02' E 023°32'0 0.0
2014-Aug-20 13:22N 38°02' E 023°32'0 0.0
2014-Aug-20 12:22N 38°02' E 023°32'0 0.0
2014-Aug-19 07:31N 38°02' E 023°32'0 0.0
2014-Aug-19 06:28N 38°02' E 023°32'0 0.0
2014-Aug-19 04:16N 38°02' E 023°32'0 0.0
2014-Aug-19 02:04N 38°02' E 023°32'0 0.0
2014-Aug-18 23:10N 38°02' E 023°32'0 0.0
2014-Aug-18 22:27N 38°02' E 023°32'0 0.0
2014-Aug-18 20:24N 38°02' E 023°32'0 0.0
2014-Aug-18 19:15N 38°02' E 023°32'0 0.0
2014-Aug-18 18:30N 38°02' E 023°32'0 0.0
2014-Aug-18 17:18N 38°02' E 023°32'0 0.0
2014-Aug-18 15:30N 38°02' E 023°32'0 0.0
2014-Aug-18 14:15N 38°02' E 023°32'0 0.0
2014-Aug-18 13:24N 38°02' E 023°32'0 0.0
2014-Aug-18 12:30N 38°02' E 023°32'0 0.0
2014-Aug-18 11:21N 38°02' E 023°32'0 0.0
2014-Aug-18 10:24N 38°02' E 023°32'0 0.0
2014-Aug-18 09:30N 38°02' E 023°32'0 0.0
2014-Aug-18 08:33N 38°02' E 023°32'0 0.0
2014-Aug-18 07:27N 38°02' E 023°32'0 0.0
2014-Aug-18 06:27N 38°02' E 023°32'0 0.0
2014-Aug-17 16:33N 38°02' E 023°32'0 0.0
2014-Aug-17 15:24N 38°02' E 023°32'  

Dump ship's entire track history